sensor_id;sensor_type;location;lat;lon;timestamp;pressure;altitude;pressure_sealevel;temperature;humidity
24762;BME280;12865;51.934;10.330;2023-07-13T00:00:03;98955.38;;;17.72;95.74
24762;BME280;12865;51.934;10.330;2023-07-13T00:02:54;98947.53;;;17.77;95.42
24762;BME280;12865;51.934;10.330;2023-07-13T00:05:40;98961.28;;;17.82;95.23
24762;BME280;12865;51.934;10.330;2023-07-13T00:08:30;98960.00;;;17.99;94.15
24762;BME280;12865;51.934;10.330;2023-07-13T00:11:16;98964.88;;;17.89;95.24
24762;BME280;12865;51.934;10.330;2023-07-13T00:14:02;98963.47;;;17.93;95.59
24762;BME280;12865;51.934;10.330;2023-07-13T00:16:48;98969.75;;;18.00;94.76
24762;BME280;12865;51.934;10.330;2023-07-13T00:19:34;98967.81;;;17.94;94.66
24762;BME280;12865;51.934;10.330;2023-07-13T00:22:22;98972.59;;;17.92;94.97
24762;BME280;12865;51.934;10.330;2023-07-13T00:25:12;98969.81;;;17.86;95.38
24762;BME280;12865;51.934;10.330;2023-07-13T00:27:58;98965.88;;;17.88;95.44
24762;BME280;12865;51.934;10.330;2023-07-13T00:30:44;98965.41;;;17.78;95.87
24762;BME280;12865;51.934;10.330;2023-07-13T00:33:30;98961.09;;;17.84;95.72
24762;BME280;12865;51.934;10.330;2023-07-13T00:36:15;98965.88;;;17.88;95.04
24762;BME280;12865;51.934;10.330;2023-07-13T00:39:01;98969.44;;;17.89;94.93
24762;BME280;12865;51.934;10.330;2023-07-13T00:41:49;98954.00;;;17.83;95.24
24762;BME280;12865;51.934;10.330;2023-07-13T00:44:35;98962.63;;;17.93;94.42
24762;BME280;12865;51.934;10.330;2023-07-13T00:47:21;98964.16;;;17.81;95.48
24762;BME280;12865;51.934;10.330;2023-07-13T00:50:09;98961.28;;;17.82;95.58
24762;BME280;12865;51.934;10.330;2023-07-13T00:52:55;98963.06;;;17.75;96.12
24762;BME280;12865;51.934;10.330;2023-07-13T00:55:43;98963.72;;;17.77;95.56
24762;BME280;12865;51.934;10.330;2023-07-13T00:58:29;98959.81;;;17.80;96.36
24762;BME280;12865;51.934;10.330;2023-07-13T01:01:15;98958.91;;;17.73;96.24
24762;BME280;12865;51.934;10.330;2023-07-13T01:04:01;98961.84;;;17.78;96.20
24762;BME280;12865;51.934;10.330;2023-07-13T01:06:47;98966.00;;;17.80;95.99
24762;BME280;12865;51.934;10.330;2023-07-13T01:09:32;98968.09;;;17.78;95.86
24762;BME280;12865;51.934;10.330;2023-07-13T01:12:18;98969.34;;;17.82;95.80
24762;BME280;12865;51.934;10.330;2023-07-13T01:15:05;98968.34;;;17.83;95.24
24762;BME280;12865;51.934;10.330;2023-07-13T01:17:51;98966.72;;;17.89;95.02
24762;BME280;12865;51.934;10.330;2023-07-13T01:20:37;98971.09;;;17.90;94.75
24762;BME280;12865;51.934;10.330;2023-07-13T01:23:24;98973.72;;;17.83;95.02
24762;BME280;12865;51.934;10.330;2023-07-13T01:26:10;98970.78;;;17.78;95.71
24762;BME280;12865;51.934;10.330;2023-07-13T01:28:56;98966.22;;;17.79;96.13
24762;BME280;12865;51.934;10.330;2023-07-13T01:31:42;98971.03;;;17.83;95.89
24762;BME280;12865;51.934;10.330;2023-07-13T01:34:29;98967.50;;;17.83;96.10
24762;BME280;12865;51.934;10.330;2023-07-13T01:37:15;98970.59;;;17.80;96.18
24762;BME280;12865;51.934;10.330;2023-07-13T01:40:03;98975.41;;;17.84;95.47
24762;BME280;12865;51.934;10.330;2023-07-13T01:42:49;98968.63;;;17.74;96.09
24762;BME280;12865;51.934;10.330;2023-07-13T01:45:34;98964.09;;;17.74;96.04
24762;BME280;12865;51.934;10.330;2023-07-13T01:48:20;98968.28;;;17.77;95.67
24762;BME280;12865;51.934;10.330;2023-07-13T01:51:06;98970.06;;;17.70;96.11
24762;BME280;12865;51.934;10.330;2023-07-13T01:53:52;98974.19;;;17.65;96.49
24762;BME280;12865;51.934;10.330;2023-07-13T01:56:37;98975.22;;;17.64;96.78
24762;BME280;12865;51.934;10.330;2023-07-13T01:59:24;98976.56;;;17.60;97.05
24762;BME280;12865;51.934;10.330;2023-07-13T02:02:09;98977.06;;;17.64;96.55
24762;BME280;12865;51.934;10.330;2023-07-13T02:04:55;98984.13;;;17.65;96.22
24762;BME280;12865;51.934;10.330;2023-07-13T02:07:42;98996.78;;;17.64;97.08
24762;BME280;12865;51.934;10.330;2023-07-13T02:10:27;98994.69;;;17.66;97.08
24762;BME280;12865;51.934;10.330;2023-07-13T02:13:13;98992.91;;;17.74;96.48
24762;BME280;12865;51.934;10.330;2023-07-13T02:15:59;98995.75;;;17.65;96.75
24762;BME280;12865;51.934;10.330;2023-07-13T02:18:45;98990.25;;;17.59;96.80
24762;BME280;12865;51.934;10.330;2023-07-13T02:21:31;98986.50;;;17.60;96.53
24762;BME280;12865;51.934;10.330;2023-07-13T02:24:17;98988.03;;;17.62;96.39
24762;BME280;12865;51.934;10.330;2023-07-13T02:27:05;98983.09;;;17.66;95.57
24762;BME280;12865;51.934;10.330;2023-07-13T02:29:50;98990.44;;;17.57;95.60
24762;BME280;12865;51.934;10.330;2023-07-13T02:32:36;98979.66;;;17.57;95.79
24762;BME280;12865;51.934;10.330;2023-07-13T02:35:22;98973.25;;;17.58;96.16
24762;BME280;12865;51.934;10.330;2023-07-13T02:38:08;98972.59;;;17.56;96.13
24762;BME280;12865;51.934;10.330;2023-07-13T02:40:54;98969.25;;;17.54;96.06
24762;BME280;12865;51.934;10.330;2023-07-13T02:43:39;98962.47;;;17.58;95.71
24762;BME280;12865;51.934;10.330;2023-07-13T02:46:25;98963.41;;;17.51;96.27
24762;BME280;12865;51.934;10.330;2023-07-13T02:49:11;98959.16;;;17.42;97.21
24762;BME280;12865;51.934;10.330;2023-07-13T02:51:57;98952.03;;;17.19;98.78
24762;BME280;12865;51.934;10.330;2023-07-13T02:54:42;98942.28;;;17.04;100.00
24762;BME280;12865;51.934;10.330;2023-07-13T02:57:28;98951.69;;;16.93;100.00
24762;BME280;12865;51.934;10.330;2023-07-13T03:00:14;98944.47;;;16.94;100.00
24762;BME280;12865;51.934;10.330;2023-07-13T03:03:01;98947.16;;;16.94;99.84
24762;BME280;12865;51.934;10.330;2023-07-13T03:05:47;98951.03;;;16.91;99.30
24762;BME280;12865;51.934;10.330;2023-07-13T03:08:35;98952.91;;;16.91;99.58
24762;BME280;12865;51.934;10.330;2023-07-13T03:11:21;98946.41;;;16.85;100.00
24762;BME280;12865;51.934;10.330;2023-07-13T03:14:07;98951.72;;;16.78;100.00
24762;BME280;12865;51.934;10.330;2023-07-13T03:16:53;98945.97;;;16.81;100.00
24762;BME280;12865;51.934;10.330;2023-07-13T03:19:39;98943.16;;;16.89;100.00
24762;BME280;12865;51.934;10.330;2023-07-13T03:22:24;98951.78;;;16.85;100.00
24762;BME280;12865;51.934;10.330;2023-07-13T03:25:10;98945.03;;;16.74;100.00
24762;BME280;12865;51.934;10.330;2023-07-13T03:27:56;98950.41;;;16.74;100.00
24762;BME280;12865;51.934;10.330;2023-07-13T03:30:42;98958.41;;;16.68;100.00
24762;BME280;12865;51.934;10.330;2023-07-13T03:33:28;98958.00;;;16.71;100.00
24762;BME280;12865;51.934;10.330;2023-07-13T03:36:17;98958.19;;;16.69;100.00
24762;BME280;12865;51.934;10.330;2023-07-13T03:39:06;98968.50;;;16.66;100.00
24762;BME280;12865;51.934;10.330;2023-07-13T03:41:53;98966.28;;;16.69;100.00
24762;BME280;12865;51.934;10.330;2023-07-13T03:44:40;98970.63;;;16.70;100.00
24762;BME280;12865;51.934;10.330;2023-07-13T03:47:26;98977.88;;;16.70;100.00
24762;BME280;12865;51.934;10.330;2023-07-13T03:50:12;98975.56;;;16.67;100.00
24762;BME280;12865;51.934;10.330;2023-07-13T03:52:59;98981.34;;;16.56;100.00
24762;BME280;12865;51.934;10.330;2023-07-13T03:55:45;98988.41;;;16.57;100.00
24762;BME280;12865;51.934;10.330;2023-07-13T03:58:36;98990.16;;;16.49;100.00
24762;BME280;12865;51.934;10.330;2023-07-13T04:01:24;98994.09;;;16.62;99.97
24762;BME280;12865;51.934;10.330;2023-07-13T04:04:10;98991.41;;;16.62;99.66
24762;BME280;12865;51.934;10.330;2023-07-13T04:06:57;98995.78;;;16.63;100.00
24762;BME280;12865;51.934;10.330;2023-07-13T04:09:43;98990.75;;;16.60;100.00
24762;BME280;12865;51.934;10.330;2023-07-13T04:12:29;98998.47;;;16.63;100.00
24762;BME280;12865;51.934;10.330;2023-07-13T04:15:15;98997.28;;;16.65;100.00
24762;BME280;12865;51.934;10.330;2023-07-13T04:18:00;99004.22;;;16.60;100.00
24762;BME280;12865;51.934;10.330;2023-07-13T04:20:47;99007.13;;;16.73;100.00
24762;BME280;12865;51.934;10.330;2023-07-13T04:23:32;99011.69;;;16.72;99.99
24762;BME280;12865;51.934;10.330;2023-07-13T04:26:18;99019.38;;;16.90;98.58
24762;BME280;12865;51.934;10.330;2023-07-13T04:29:07;99015.50;;;16.93;97.71
24762;BME280;12865;51.934;10.330;2023-07-13T04:31:52;99028.22;;;16.99;97.94
24762;BME280;12865;51.934;10.330;2023-07-13T04:34:38;99030.06;;;16.98;97.83
24762;BME280;12865;51.934;10.330;2023-07-13T04:37:24;99022.00;;;16.98;97.62
24762;BME280;12865;51.934;10.330;2023-07-13T04:40:10;99024.69;;;16.98;98.82
24762;BME280;12865;51.934;10.330;2023-07-13T04:42:57;99022.25;;;17.03;99.09
24762;BME280;12865;51.934;10.330;2023-07-13T04:45:43;99031.00;;;17.05;99.15
24762;BME280;12865;51.934;10.330;2023-07-13T04:48:28;99025.88;;;17.10;98.44
24762;BME280;12865;51.934;10.330;2023-07-13T04:51:14;99027.03;;;17.16;97.76
24762;BME280;12865;51.934;10.330;2023-07-13T04:54:00;99031.00;;;17.20;96.91
24762;BME280;12865;51.934;10.330;2023-07-13T04:56:45;99024.41;;;17.22;97.12
24762;BME280;12865;51.934;10.330;2023-07-13T04:59:32;99028.56;;;17.25;97.16
24762;BME280;12865;51.934;10.330;2023-07-13T05:02:18;99036.97;;;17.30;97.31
24762;BME280;12865;51.934;10.330;2023-07-13T05:05:06;99040.66;;;17.44;97.21
24762;BME280;12865;51.934;10.330;2023-07-13T05:07:53;99045.19;;;17.58;95.67
24762;BME280;12865;51.934;10.330;2023-07-13T05:10:39;99051.59;;;17.72;94.22
24762;BME280;12865;51.934;10.330;2023-07-13T05:13:24;99043.47;;;17.86;93.37
24762;BME280;12865;51.934;10.330;2023-07-13T05:16:10;99055.88;;;18.02;92.08
24762;BME280;12865;51.934;10.330;2023-07-13T05:18:55;99062.91;;;18.18;90.03
24762;BME280;12865;51.934;10.330;2023-07-13T05:21:41;99059.81;;;18.21;88.55
24762;BME280;12865;51.934;10.330;2023-07-13T05:24:27;99055.31;;;18.28;87.41
24762;BME280;12865;51.934;10.330;2023-07-13T05:27:12;99053.41;;;18.43;87.05
24762;BME280;12865;51.934;10.330;2023-07-13T05:29:58;99050.28;;;18.46;85.42
24762;BME280;12865;51.934;10.330;2023-07-13T05:32:44;99051.97;;;18.47;85.61
24762;BME280;12865;51.934;10.330;2023-07-13T05:35:29;99057.13;;;18.63;85.51
24762;BME280;12865;51.934;10.330;2023-07-13T05:38:15;99062.13;;;18.66;83.50
24762;BME280;12865;51.934;10.330;2023-07-13T05:41:01;99059.97;;;18.83;82.69
24762;BME280;12865;51.934;10.330;2023-07-13T05:43:47;99066.78;;;19.07;83.42
24762;BME280;12865;51.934;10.330;2023-07-13T05:46:33;99065.44;;;19.24;80.37
24762;BME280;12865;51.934;10.330;2023-07-13T05:49:19;99069.59;;;19.20;80.27
24762;BME280;12865;51.934;10.330;2023-07-13T05:52:05;99067.31;;;19.23;81.84
24762;BME280;12865;51.934;10.330;2023-07-13T05:54:50;99071.53;;;18.98;81.32
24762;BME280;12865;51.934;10.330;2023-07-13T05:57:36;99070.19;;;19.15;82.12
24762;BME280;12865;51.934;10.330;2023-07-13T06:00:22;99068.22;;;19.03;81.76
24762;BME280;12865;51.934;10.330;2023-07-13T06:03:07;99073.88;;;19.08;82.47
24762;BME280;12865;51.934;10.330;2023-07-13T06:05:53;99064.56;;;19.17;80.78
24762;BME280;12865;51.934;10.330;2023-07-13T06:08:39;99063.75;;;19.16;83.37
24762;BME280;12865;51.934;10.330;2023-07-13T06:11:26;99067.25;;;18.82;83.58
24762;BME280;12865;51.934;10.330;2023-07-13T06:14:13;99067.94;;;19.19;82.75
24762;BME280;12865;51.934;10.330;2023-07-13T06:16:58;99055.34;;;19.39;81.07
24762;BME280;12865;51.934;10.330;2023-07-13T06:19:44;99062.34;;;19.55;79.95
24762;BME280;12865;51.934;10.330;2023-07-13T06:22:30;99070.22;;;19.56;80.27
24762;BME280;12865;51.934;10.330;2023-07-13T06:25:15;99077.44;;;19.15;80.48
24762;BME280;12865;51.934;10.330;2023-07-13T06:28:01;99084.53;;;19.16;81.57
24762;BME280;12865;51.934;10.330;2023-07-13T06:30:46;99075.63;;;19.22;82.44
24762;BME280;12865;51.934;10.330;2023-07-13T06:33:32;99077.72;;;19.20;80.50
24762;BME280;12865;51.934;10.330;2023-07-13T06:36:18;99080.78;;;19.17;81.95
24762;BME280;12865;51.934;10.330;2023-07-13T06:39:06;99085.03;;;19.26;81.62
24762;BME280;12865;51.934;10.330;2023-07-13T06:41:51;99089.56;;;19.53;77.78
24762;BME280;12865;51.934;10.330;2023-07-13T06:44:37;99074.69;;;19.84;78.57
24762;BME280;12865;51.934;10.330;2023-07-13T06:47:23;99082.16;;;19.69;79.69
24762;BME280;12865;51.934;10.330;2023-07-13T06:50:09;99072.31;;;20.15;77.75
24762;BME280;12865;51.934;10.330;2023-07-13T06:52:55;99078.25;;;20.52;74.46
24762;BME280;12865;51.934;10.330;2023-07-13T06:55:40;99083.47;;;20.73;72.33
24762;BME280;12865;51.934;10.330;2023-07-13T06:58:29;99079.34;;;19.90;73.54
24762;BME280;12865;51.934;10.330;2023-07-13T07:01:14;99075.03;;;20.15;75.87
24762;BME280;12865;51.934;10.330;2023-07-13T07:04:00;99072.81;;;20.52;71.79
24762;BME280;12865;51.934;10.330;2023-07-13T07:06:47;99079.09;;;19.85;74.43
24762;BME280;12865;51.934;10.330;2023-07-13T07:09:32;99076.66;;;19.96;73.92
24762;BME280;12865;51.934;10.330;2023-07-13T07:12:18;99083.34;;;20.14;74.50
24762;BME280;12865;51.934;10.330;2023-07-13T07:15:04;99074.56;;;20.12;71.84
24762;BME280;12865;51.934;10.330;2023-07-13T07:17:50;99086.50;;;20.24;72.03
24762;BME280;12865;51.934;10.330;2023-07-13T07:20:36;99076.19;;;20.67;68.17
24762;BME280;12865;51.934;10.330;2023-07-13T07:23:22;99079.28;;;20.77;68.23
24762;BME280;12865;51.934;10.330;2023-07-13T07:26:07;99075.50;;;21.04;67.66
24762;BME280;12865;51.934;10.330;2023-07-13T07:28:55;99080.09;;;21.17;64.52
24762;BME280;12865;51.934;10.330;2023-07-13T07:31:41;99084.25;;;20.47;68.61
24762;BME280;12865;51.934;10.330;2023-07-13T07:34:26;99082.41;;;20.61;67.26
24762;BME280;12865;51.934;10.330;2023-07-13T07:37:13;99092.19;;;20.68;66.18
24762;BME280;12865;51.934;10.330;2023-07-13T07:39:59;99085.97;;;20.88;65.64
24762;BME280;12865;51.934;10.330;2023-07-13T07:42:45;99084.47;;;21.05;66.30
24762;BME280;12865;51.934;10.330;2023-07-13T07:45:30;99090.13;;;21.30;62.91
24762;BME280;12865;51.934;10.330;2023-07-13T07:48:16;99092.16;;;21.41;63.67
24762;BME280;12865;51.934;10.330;2023-07-13T07:51:02;99090.94;;;21.10;63.04
24762;BME280;12865;51.934;10.330;2023-07-13T07:53:48;99101.16;;;21.35;62.26
24762;BME280;12865;51.934;10.330;2023-07-13T07:56:34;99088.84;;;21.32;61.75
24762;BME280;12865;51.934;10.330;2023-07-13T07:59:19;99094.75;;;21.16;62.41
24762;BME280;12865;51.934;10.330;2023-07-13T08:02:06;99095.31;;;21.44;63.83
24762;BME280;12865;51.934;10.330;2023-07-13T08:04:52;99092.91;;;21.74;60.32
24762;BME280;12865;51.934;10.330;2023-07-13T08:07:38;99097.84;;;21.90;60.12
24762;BME280;12865;51.934;10.330;2023-07-13T08:10:24;99101.69;;;21.70;59.76
24762;BME280;12865;51.934;10.330;2023-07-13T08:13:10;99090.19;;;21.74;59.97
24762;BME280;12865;51.934;10.330;2023-07-13T08:15:56;99105.63;;;21.74;62.88
24762;BME280;12865;51.934;10.330;2023-07-13T08:18:42;99105.06;;;21.65;60.79
24762;BME280;12865;51.934;10.330;2023-07-13T08:21:27;99114.66;;;21.54;60.96
24762;BME280;12865;51.934;10.330;2023-07-13T08:24:14;99102.03;;;21.22;61.29
24762;BME280;12865;51.934;10.330;2023-07-13T08:27:00;99107.44;;;21.22;63.11
24762;BME280;12865;51.934;10.330;2023-07-13T08:29:47;99114.72;;;20.89;63.53
24762;BME280;12865;51.934;10.330;2023-07-13T08:32:33;99106.81;;;21.27;62.77
24762;BME280;12865;51.934;10.330;2023-07-13T08:35:19;99110.09;;;21.55;61.24
24762;BME280;12865;51.934;10.330;2023-07-13T08:38:04;99114.03;;;21.52;61.25
24762;BME280;12865;51.934;10.330;2023-07-13T08:40:55;99110.88;;;21.69;60.42
24762;BME280;12865;51.934;10.330;2023-07-13T08:43:45;99107.94;;;21.70;60.53
24762;BME280;12865;51.934;10.330;2023-07-13T08:46:35;99107.22;;;21.24;62.72
24762;BME280;12865;51.934;10.330;2023-07-13T08:49:23;99112.56;;;21.63;61.38
24762;BME280;12865;51.934;10.330;2023-07-13T08:52:32;99114.53;;;21.94;60.32
24762;BME280;12865;51.934;10.330;2023-07-13T08:55:22;99113.94;;;22.68;59.66
24762;BME280;12865;51.934;10.330;2023-07-13T08:58:12;99106.41;;;22.01;56.73
24762;BME280;12865;51.934;10.330;2023-07-13T09:04:18;99118.53;;;21.98;59.39
24762;BME280;12865;51.934;10.330;2023-07-13T09:07:07;99124.78;;;21.92;61.98
24762;BME280;12865;51.934;10.330;2023-07-13T09:16:46;99123.41;;;22.59;58.25
24762;BME280;12865;51.934;10.330;2023-07-13T09:19:34;99124.94;;;22.48;57.53
24762;BME280;12865;51.934;10.330;2023-07-13T09:22:21;99131.34;;;21.71;58.28
24762;BME280;12865;51.934;10.330;2023-07-13T09:25:29;99131.22;;;22.49;57.77
24762;BME280;12865;51.934;10.330;2023-07-13T09:31:09;99126.78;;;22.86;54.90
24762;BME280;12865;51.934;10.330;2023-07-13T09:33:57;99135.28;;;22.96;55.05
24762;BME280;12865;51.934;10.330;2023-07-13T09:36:43;99125.03;;;23.41;54.36
24762;BME280;12865;51.934;10.330;2023-07-13T09:39:35;99123.53;;;23.02;54.02
24762;BME280;12865;51.934;10.330;2023-07-13T09:42:22;99134.28;;;23.15;53.88
24762;BME280;12865;51.934;10.330;2023-07-13T09:45:08;99138.81;;;23.46;52.40
24762;BME280;12865;51.934;10.330;2023-07-13T09:48:06;99146.81;;;23.41;52.66
24762;BME280;12865;51.934;10.330;2023-07-13T09:50:57;99139.50;;;22.60;53.87
24762;BME280;12865;51.934;10.330;2023-07-13T09:53:52;99146.13;;;23.52;52.14
24762;BME280;12865;51.934;10.330;2023-07-13T09:56:37;99140.47;;;23.04;55.43
24762;BME280;12865;51.934;10.330;2023-07-13T09:59:29;99133.84;;;23.18;56.78
24762;BME280;12865;51.934;10.330;2023-07-13T10:02:28;99146.28;;;22.83;57.77
24762;BME280;12865;51.934;10.330;2023-07-13T10:05:14;99141.53;;;22.33;58.00
24762;BME280;12865;51.934;10.330;2023-07-13T10:08:01;99148.22;;;21.67;60.80
24762;BME280;12865;51.934;10.330;2023-07-13T10:10:53;99152.00;;;21.72;62.83
24762;BME280;12865;51.934;10.330;2023-07-13T10:13:48;99151.31;;;21.97;60.80
24762;BME280;12865;51.934;10.330;2023-07-13T10:16:36;99149.22;;;21.99;60.43
24762;BME280;12865;51.934;10.330;2023-07-13T10:19:25;99153.25;;;22.34;57.06
24762;BME280;12865;51.934;10.330;2023-07-13T10:22:44;99139.06;;;22.25;57.76
24762;BME280;12865;51.934;10.330;2023-07-13T10:25:38;99152.84;;;22.24;60.14
24762;BME280;12865;51.934;10.330;2023-07-13T10:28:35;99152.03;;;21.52;61.22
24762;BME280;12865;51.934;10.330;2023-07-13T10:31:22;99144.97;;;21.51;60.67
24762;BME280;12865;51.934;10.330;2023-07-13T10:34:10;99146.84;;;21.51;59.49
24762;BME280;12865;51.934;10.330;2023-07-13T10:36:57;99145.19;;;22.08;59.20
24762;BME280;12865;51.934;10.330;2023-07-13T10:39:44;99160.53;;;22.71;57.64
24762;BME280;12865;51.934;10.330;2023-07-13T10:42:35;99171.38;;;22.78;54.94
24762;BME280;12865;51.934;10.330;2023-07-13T10:45:24;99156.00;;;22.59;56.81
24762;BME280;12865;51.934;10.330;2023-07-13T10:48:13;99155.81;;;22.60;56.60
24762;BME280;12865;51.934;10.330;2023-07-13T10:51:00;99161.66;;;22.95;55.47
24762;BME280;12865;51.934;10.330;2023-07-13T10:53:47;99172.31;;;23.46;54.96
24762;BME280;12865;51.934;10.330;2023-07-13T10:56:33;99171.91;;;22.93;53.90
24762;BME280;12865;51.934;10.330;2023-07-13T10:59:25;99171.25;;;22.98;55.62
24762;BME280;12865;51.934;10.330;2023-07-13T11:02:25;99175.59;;;22.74;54.93
24762;BME280;12865;51.934;10.330;2023-07-13T11:08:33;99183.75;;;23.05;54.53
24762;BME280;12865;51.934;10.330;2023-07-13T11:14:31;99186.72;;;23.90;51.81
24762;BME280;12865;51.934;10.330;2023-07-13T11:23:16;99165.50;;;23.80;50.08
24762;BME280;12865;51.934;10.330;2023-07-13T11:26:03;99167.84;;;23.95;51.60
24762;BME280;12865;51.934;10.330;2023-07-13T11:28:49;99168.44;;;24.15;50.94
24762;BME280;12865;51.934;10.330;2023-07-13T11:31:35;99169.66;;;24.01;49.72
24762;BME280;12865;51.934;10.330;2023-07-13T11:34:35;99165.72;;;24.15;47.87
24762;BME280;12865;51.934;10.330;2023-07-13T11:37:22;99163.81;;;24.64;47.12
24762;BME280;12865;51.934;10.330;2023-07-13T11:40:13;99165.38;;;24.60;46.70
24762;BME280;12865;51.934;10.330;2023-07-13T11:43:00;99165.78;;;24.87;47.46
24762;BME280;12865;51.934;10.330;2023-07-13T11:45:47;99161.44;;;24.97;46.98
24762;BME280;12865;51.934;10.330;2023-07-13T11:48:33;99163.16;;;25.22;47.12
24762;BME280;12865;51.934;10.330;2023-07-13T11:51:34;99155.22;;;25.43;44.62
24762;BME280;12865;51.934;10.330;2023-07-13T11:54:43;99155.44;;;24.77;45.00
24762;BME280;12865;51.934;10.330;2023-07-13T11:57:41;99152.63;;;24.06;47.41
24762;BME280;12865;51.934;10.330;2023-07-13T12:00:31;99161.63;;;24.06;47.54
24762;BME280;12865;51.934;10.330;2023-07-13T12:03:21;99150.28;;;24.27;47.58
24762;BME280;12865;51.934;10.330;2023-07-13T12:06:23;99149.97;;;23.99;48.01
24762;BME280;12865;51.934;10.330;2023-07-13T12:09:14;99149.88;;;23.51;49.59
24762;BME280;12865;51.934;10.330;2023-07-13T12:12:10;99149.31;;;23.85;48.80
24762;BME280;12865;51.934;10.330;2023-07-13T12:14:57;99145.97;;;24.20;47.87
24762;BME280;12865;51.934;10.330;2023-07-13T12:17:42;99140.81;;;24.60;45.39
24762;BME280;12865;51.934;10.330;2023-07-13T12:20:37;99145.00;;;24.74;44.11
24762;BME280;12865;51.934;10.330;2023-07-13T12:26:11;99145.56;;;24.94;43.10
24762;BME280;12865;51.934;10.330;2023-07-13T12:29:01;99136.69;;;25.11;42.80
24762;BME280;12865;51.934;10.330;2023-07-13T12:31:50;99141.94;;;25.35;42.52
24762;BME280;12865;51.934;10.330;2023-07-13T12:34:55;99142.84;;;25.06;42.97
24762;BME280;12865;51.934;10.330;2023-07-13T12:37:43;99144.63;;;25.24;42.72
24762;BME280;12865;51.934;10.330;2023-07-13T12:40:32;99137.00;;;24.91;43.51
24762;BME280;12865;51.934;10.330;2023-07-13T12:43:20;99151.97;;;25.00;42.96
24762;BME280;12865;51.934;10.330;2023-07-13T12:46:21;99146.44;;;24.88;43.54
24762;BME280;12865;51.934;10.330;2023-07-13T12:49:09;99146.94;;;24.25;43.45
24762;BME280;12865;51.934;10.330;2023-07-13T12:52:01;99161.22;;;24.69;44.27
24762;BME280;12865;51.934;10.330;2023-07-13T12:55:07;99162.03;;;24.58;44.23
24762;BME280;12865;51.934;10.330;2023-07-13T12:58:03;99156.59;;;24.40;45.43
24762;BME280;12865;51.934;10.330;2023-07-13T13:00:50;99143.06;;;24.63;46.78
24762;BME280;12865;51.934;10.330;2023-07-13T13:03:44;99154.72;;;24.70;45.20
24762;BME280;12865;51.934;10.330;2023-07-13T13:06:30;99154.81;;;24.63;46.20
24762;BME280;12865;51.934;10.330;2023-07-13T13:09:17;99155.63;;;24.52;46.08
24762;BME280;12865;51.934;10.330;2023-07-13T13:12:04;99147.94;;;24.31;45.95
24762;BME280;12865;51.934;10.330;2023-07-13T13:14:51;99146.53;;;24.70;45.72
24762;BME280;12865;51.934;10.330;2023-07-13T13:17:38;99144.75;;;24.94;46.31
24762;BME280;12865;51.934;10.330;2023-07-13T13:20:24;99137.06;;;25.26;44.79
24762;BME280;12865;51.934;10.330;2023-07-13T13:23:13;99151.88;;;25.53;44.33
24762;BME280;12865;51.934;10.330;2023-07-13T13:26:03;99151.53;;;25.38;45.68
24762;BME280;12865;51.934;10.330;2023-07-13T13:28:50;99148.91;;;24.67;46.04
24762;BME280;12865;51.934;10.330;2023-07-13T13:31:36;99148.06;;;24.66;46.26
24762;BME280;12865;51.934;10.330;2023-07-13T13:34:23;99148.41;;;25.11;45.89
24762;BME280;12865;51.934;10.330;2023-07-13T13:37:22;99145.34;;;24.66;45.48
24762;BME280;12865;51.934;10.330;2023-07-13T13:40:17;99150.84;;;24.89;46.49
24762;BME280;12865;51.934;10.330;2023-07-13T13:43:13;99148.66;;;25.10;44.79
24762;BME280;12865;51.934;10.330;2023-07-13T13:46:01;99153.44;;;24.84;45.17
24762;BME280;12865;51.934;10.330;2023-07-13T13:48:46;99160.38;;;24.98;46.67
24762;BME280;12865;51.934;10.330;2023-07-13T13:51:32;99148.03;;;24.96;46.50
24762;BME280;12865;51.934;10.330;2023-07-13T13:54:19;99153.66;;;25.13;45.92
24762;BME280;12865;51.934;10.330;2023-07-13T13:57:05;99153.38;;;25.02;45.26
24762;BME280;12865;51.934;10.330;2023-07-13T13:59:52;99159.22;;;24.76;44.68
24762;BME280;12865;51.934;10.330;2023-07-13T14:02:38;99157.09;;;24.78;44.18
24762;BME280;12865;51.934;10.330;2023-07-13T14:05:24;99155.34;;;24.84;43.49
24762;BME280;12865;51.934;10.330;2023-07-13T14:08:16;99154.63;;;24.47;43.00
24762;BME280;12865;51.934;10.330;2023-07-13T14:11:02;99161.03;;;24.82;43.37
24762;BME280;12865;51.934;10.330;2023-07-13T14:13:50;99151.41;;;25.56;42.68
24762;BME280;12865;51.934;10.330;2023-07-13T14:16:36;99144.28;;;25.55;42.49
24762;BME280;12865;51.934;10.330;2023-07-13T14:19:22;99149.53;;;25.57;42.98
24762;BME280;12865;51.934;10.330;2023-07-13T14:22:08;99162.59;;;25.43;43.12
24762;BME280;12865;51.934;10.330;2023-07-13T14:24:54;99159.72;;;24.73;43.71
24762;BME280;12865;51.934;10.330;2023-07-13T14:27:41;99166.84;;;24.86;44.12
24762;BME280;12865;51.934;10.330;2023-07-13T14:30:28;99165.53;;;24.47;43.92
24762;BME280;12865;51.934;10.330;2023-07-13T14:33:13;99166.34;;;24.77;42.92
24762;BME280;12865;51.934;10.330;2023-07-13T14:35:59;99173.13;;;25.28;41.75
24762;BME280;12865;51.934;10.330;2023-07-13T14:38:45;99167.84;;;26.19;40.42
24762;BME280;12865;51.934;10.330;2023-07-13T14:41:30;99171.66;;;26.30;38.88
24762;BME280;12865;51.934;10.330;2023-07-13T14:44:19;99161.56;;;26.07;38.84
24762;BME280;12865;51.934;10.330;2023-07-13T14:47:06;99170.50;;;25.44;39.42
24762;BME280;12865;51.934;10.330;2023-07-13T14:49:52;99180.84;;;25.31;41.11
24762;BME280;12865;51.934;10.330;2023-07-13T14:52:38;99166.69;;;25.11;40.97
24762;BME280;12865;51.934;10.330;2023-07-13T14:55:24;99182.09;;;24.93;41.60
24762;BME280;12865;51.934;10.330;2023-07-13T14:58:11;99181.16;;;25.11;42.18
24762;BME280;12865;51.934;10.330;2023-07-13T15:00:59;99181.59;;;24.96;42.47
24762;BME280;12865;51.934;10.330;2023-07-13T15:03:47;99179.38;;;25.17;42.14